Time;durP1;ratioP1;P1;durP2;ratioP2;P2;SDS_P1;SDS_P2;PMS_P1;PMS_P2;Temp;Humidity;BMP_temperature;BMP_pressure;BME280_temperature;BME280_humidity;BME280_pressure;Samples;Min_cycle;Max_cycle;Signal;HPM_P1;HPM_P2
2021/12/08 00:00:15;;;;;;;1999.90;999.90;;;-3.20;99.90;;;;;;5035494;28;20029;-84
2021/12/08 00:02:41;;;;;;;1999.90;999.90;;;-3.20;99.90;;;;;;5033973;28;20136;-84
2021/12/08 00:05:08;;;;;;;1999.90;999.90;;;-3.30;99.90;;;;;;5035886;28;20041;-84
2021/12/08 00:07:34;;;;;;;1999.90;999.90;;;-3.30;99.90;;;;;;5035979;28;20029;-84
2021/12/08 00:10:14;;;;;;;1999.90;999.90;;;-3.30;99.90;;;;;;5033851;28;20103;-79
2021/12/08 00:15:26;;;;;;;1999.90;999.90;;;-3.30;99.90;;;;;;5035687;28;20032;-79
2021/12/08 00:17:52;;;;;;;1999.90;999.90;;;-3.40;99.90;;;;;;5033947;28;20013;-78
2021/12/08 00:20:18;;;;;;;1999.90;999.90;;;-3.40;99.90;;;;;;5034189;28;20116;-79
2021/12/08 00:22:44;;;;;;;1999.90;999.90;;;-3.50;99.90;;;;;;5033928;28;20033;-81
2021/12/08 00:25:09;;;;;;;1999.90;999.90;;;-3.50;99.90;;;;;;5034016;28;20465;-80
2021/12/08 00:27:35;;;;;;;1999.90;999.90;;;-3.40;99.90;;;;;;5033793;28;20036;-79
2021/12/08 00:30:01;;;;;;;1999.90;999.90;;;-3.50;99.90;;;;;;5034067;28;20036;-79
2021/12/08 00:32:29;;;;;;;1999.90;999.90;;;-3.50;99.90;;;;;;5033618;28;20041;-79
2021/12/08 00:34:55;;;;;;;1999.90;999.90;;;-3.50;99.90;;;;;;5033410;28;20025;-82
2021/12/08 00:37:23;;;;;;;1999.90;999.90;;;-3.50;99.90;;;;;;5033741;28;20036;-78
2021/12/08 00:39:48;;;;;;;1999.90;999.90;;;-3.50;99.90;;;;;;5034439;28;20029;-84
2021/12/08 00:42:14;;;;;;;1999.90;999.90;;;-3.50;99.90;;;;;;5033851;28;20025;-83
2021/12/08 00:44:40;;;;;;;1999.90;999.90;;;-3.50;99.90;;;;;;5033652;28;20115;-82
2021/12/08 00:47:06;;;;;;;1999.90;999.90;;;-3.50;99.90;;;;;;5035085;28;20105;-79
2021/12/08 00:49:31;;;;;;;1999.90;999.90;;;-3.60;99.90;;;;;;5035018;28;20095;-83
2021/12/08 00:51:57;;;;;;;1999.90;999.90;;;-3.60;99.90;;;;;;5033369;28;20013;-85
2021/12/08 00:54:23;;;;;;;1999.90;999.90;;;-3.60;99.90;;;;;;5033564;28;20025;-78
2021/12/08 00:56:49;;;;;;;1999.90;999.90;;;-3.70;99.90;;;;;;5034711;28;20495;-79
2021/12/08 00:59:14;;;;;;;1999.90;999.90;;;-3.70;99.90;;;;;;5034344;28;20018;-78
2021/12/08 01:01:40;;;;;;;1999.90;999.90;;;-3.70;99.90;;;;;;5033385;28;20052;-83
2021/12/08 01:04:07;;;;;;;1999.90;999.90;;;-3.80;99.90;;;;;;5034794;28;20045;-78
2021/12/08 01:06:34;;;;;;;1999.90;999.90;;;-3.70;99.90;;;;;;5033737;28;20409;-83
2021/12/08 01:09:00;;;;;;;1999.90;999.90;;;-3.70;99.90;;;;;;5033011;28;20038;-82
2021/12/08 01:11:26;;;;;;;1999.90;999.90;;;-3.80;99.90;;;;;;5034031;28;20029;-81
2021/12/08 01:13:52;;;;;;;1999.90;999.90;;;-3.80;99.90;;;;;;5034061;28;20112;-82
2021/12/08 01:16:20;;;;;;;1999.90;999.90;;;-3.80;99.90;;;;;;5033837;28;20100;-78
2021/12/08 01:18:46;;;;;;;1999.90;999.90;;;-3.80;99.90;;;;;;5033003;28;20036;-78
2021/12/08 01:21:13;;;;;;;1999.90;999.90;;;-3.90;99.90;;;;;;5033174;28;20108;-79
2021/12/08 01:23:40;;;;;;;1999.90;999.90;;;-3.90;99.90;;;;;;5033281;28;20040;-79
2021/12/08 01:26:07;;;;;;;1999.90;999.90;;;-3.90;99.90;;;;;;5034045;28;20030;-79
2021/12/08 01:28:33;;;;;;;1999.90;999.90;;;-3.90;99.90;;;;;;5033518;28;20030;-81
2021/12/08 01:31:01;;;;;;;1999.90;999.90;;;-3.90;99.90;;;;;;5033594;28;20052;-79
2021/12/08 01:33:30;;;;;;;1999.90;999.90;;;-3.90;99.90;;;;;;5032179;28;20033;-83
2021/12/08 01:35:57;;;;;;;1999.90;999.90;;;-3.90;99.90;;;;;;5032002;28;20542;-78
2021/12/08 01:38:22;;;;;;;1999.90;999.90;;;-3.90;99.90;;;;;;5032108;28;20029;-83
2021/12/08 01:40:49;;;;;;;1999.90;999.90;;;-3.90;99.90;;;;;;5031869;28;20079;-78
2021/12/08 01:43:26;;;;;;;1999.90;999.90;;;-3.90;99.90;;;;;;5032929;28;20504;-83
2021/12/08 01:46:00;;;;;;;1999.90;999.90;;;-3.90;99.90;;;;;;5032350;28;20128;-79
2021/12/08 01:48:30;;;;;;;1999.90;999.90;;;-3.80;99.90;;;;;;5034344;28;20068;-80
2021/12/08 01:51:00;;;;;;;1999.90;999.90;;;-3.80;99.90;;;;;;5037008;28;20100;-82
2021/12/08 01:53:26;;;;;;;1999.90;999.90;;;-3.90;99.90;;;;;;5038162;28;20084;-84
2021/12/08 01:55:51;;;;;;;1999.90;999.90;;;-3.90;99.90;;;;;;5038790;28;20033;-79
2021/12/08 01:58:17;;;;;;;1999.90;999.90;;;-3.90;99.90;;;;;;5036862;28;20029;-78
2021/12/08 02:00:48;;;;;;;1999.90;999.90;;;-4.00;99.90;;;;;;5038573;28;20029;-78
2021/12/08 02:03:16;;;;;;;1999.90;999.90;;;-4.00;99.90;;;;;;5038005;28;20068;-82
2021/12/08 02:05:42;;;;;;;1999.90;999.90;;;-4.00;99.90;;;;;;5037994;28;20033;-79
2021/12/08 02:08:08;;;;;;;1999.90;999.90;;;-4.00;99.90;;;;;;5036803;28;20029;-84
2021/12/08 02:10:37;;;;;;;1999.90;999.90;;;-4.10;99.90;;;;;;5037678;28;20032;-79
2021/12/08 02:13:03;;;;;;;1999.90;999.90;;;-4.10;99.90;;;;;;5036354;28;20120;-83
2021/12/08 02:15:29;;;;;;;1999.90;999.90;;;-4.10;99.90;;;;;;5037269;28;20074;-79
2021/12/08 02:17:56;;;;;;;1999.90;999.90;;;-4.20;99.90;;;;;;5037017;28;20029;-83
2021/12/08 02:20:25;;;;;;;1999.90;999.90;;;-4.20;99.90;;;;;;5036910;28;20033;-77
2021/12/08 02:22:51;;;;;;;1999.90;999.90;;;-4.30;99.90;;;;;;5037951;28;20036;-79
2021/12/08 02:25:19;;;;;;;1999.90;999.90;;;-4.30;99.90;;;;;;5037364;28;20041;-84
2021/12/08 02:27:46;;;;;;;1999.90;999.90;;;-4.30;99.90;;;;;;5036458;28;20029;-82
2021/12/08 02:30:22;;;;;;;1999.90;999.90;;;-4.20;99.90;;;;;;5036991;28;20029;-83
2021/12/08 02:49:25;;;;;;;1999.90;999.90;;;-4.40;99.90;;;;;;5041299;28;20037;-85
2021/12/08 02:51:52;;;;;;;1999.90;999.90;;;-4.50;99.90;;;;;;5036400;28;20095;-79
2021/12/08 02:54:18;;;;;;;1999.90;999.90;;;-4.50;99.90;;;;;;5036938;28;20026;-82
2021/12/08 02:56:44;;;;;;;1999.90;999.90;;;-4.50;99.90;;;;;;5036628;28;20079;-82
2021/12/08 02:59:10;;;;;;;1999.90;999.90;;;-4.50;99.90;;;;;;5035825;28;20093;-78
2021/12/08 03:01:37;;;;;;;1999.90;999.90;;;-4.60;99.90;;;;;;5035478;28;20037;-84
2021/12/08 03:04:04;;;;;;;1999.90;999.90;;;-4.50;99.90;;;;;;5037167;28;20055;-84
2021/12/08 03:06:30;;;;;;;1999.90;999.90;;;-4.50;99.90;;;;;;5035955;28;20033;-81
2021/12/08 03:08:55;;;;;;;1999.90;999.90;;;-4.50;99.90;;;;;;5035616;28;20026;-81
2021/12/08 03:11:21;;;;;;;1999.90;999.90;;;-4.50;99.90;;;;;;5036093;28;20034;-78
2021/12/08 03:14:03;;;;;;;1999.90;999.90;;;-4.60;99.90;;;;;;5037320;28;20105;-81
2021/12/08 03:16:28;;;;;;;1999.90;999.90;;;-4.70;99.90;;;;;;5036666;28;20030;-80
2021/12/08 03:18:54;;;;;;;1999.90;999.90;;;-4.70;99.90;;;;;;5036544;28;20388;-81
2021/12/08 03:21:27;;;;;;;1999.90;999.90;;;-4.60;99.90;;;;;;5035748;28;20079;-80
2021/12/08 03:24:07;;;;;;;1999.90;999.90;;;-4.60;99.90;;;;;;5036567;28;20025;-83
2021/12/08 03:26:34;;;;;;;1999.90;999.90;;;-4.60;99.90;;;;;;5035283;28;20038;-83
2021/12/08 03:29:17;;;;;;;1999.90;999.90;;;-4.60;99.90;;;;;;5035864;28;20017;-79
2021/12/08 03:31:45;;;;;;;1999.90;999.90;;;-4.60;99.90;;;;;;5035546;28;20457;-83
2021/12/08 03:34:11;;;;;;;1999.90;999.90;;;-4.60;99.90;;;;;;5034655;28;20025;-81
2021/12/08 03:36:37;;;;;;;1999.90;999.90;;;-4.70;99.90;;;;;;5035120;28;20536;-82
2021/12/08 03:39:04;;;;;;;1999.90;999.90;;;-4.70;99.90;;;;;;5035417;28;20060;-78
2021/12/08 03:41:33;;;;;;;1999.90;999.90;;;-4.60;99.90;;;;;;5034996;28;20436;-78
2021/12/08 03:44:00;;;;;;;1999.90;999.90;;;-4.70;99.90;;;;;;5034131;28;20026;-79
2021/12/08 03:46:27;;;;;;;1999.90;999.90;;;-4.60;99.90;;;;;;5034866;28;20384;-82
2021/12/08 03:48:53;;;;;;;1999.90;999.90;;;-4.60;99.90;;;;;;5034214;28;20082;-82
2021/12/08 03:51:19;;;;;;;1999.90;999.90;;;-4.60;99.90;;;;;;5034308;28;20393;-78
2021/12/08 03:53:46;;;;;;;1999.90;999.90;;;-4.70;99.90;;;;;;5034483;28;20030;-81
2021/12/08 03:56:12;;;;;;;1999.90;999.90;;;-4.60;99.90;;;;;;5034535;28;20075;-84
2021/12/08 03:58:37;;;;;;;1999.90;999.90;;;-4.60;99.90;;;;;;5035711;28;20412;-78
2021/12/08 04:01:06;;;;;;;1999.90;999.90;;;-4.60;99.90;;;;;;5035629;28;20052;-84
2021/12/08 04:03:33;;;;;;;1999.90;999.90;;;-4.70;99.90;;;;;;5035386;28;20057;-83
2021/12/08 04:06:03;;;;;;;1999.90;999.90;;;-4.60;99.90;;;;;;5035331;28;20041;-78
2021/12/08 04:08:40;;;;;;;1999.90;999.90;;;-4.80;99.90;;;;;;5034526;28;20029;-83
2021/12/08 04:11:09;;;;;;;1999.90;999.90;;;-4.80;99.90;;;;;;5034684;28;20429;-80
2021/12/08 04:13:46;;;;;;;1999.90;999.90;;;-4.90;99.90;;;;;;5034840;28;20026;-79
2021/12/08 04:16:15;;;;;;;1999.90;999.90;;;-5.00;99.90;;;;;;5034380;28;20091;-79
2021/12/08 04:18:42;;;;;;;1999.90;999.90;;;-5.00;99.90;;;;;;5034121;28;20116;-79
2021/12/08 04:21:09;;;;;;;1999.90;999.90;;;-5.10;99.90;;;;;;5033934;28;20022;-80
2021/12/08 04:23:38;;;;;;;1999.90;999.90;;;-5.10;99.90;;;;;;5033763;28;20473;-81
2021/12/08 04:26:12;;;;;;;1999.90;999.90;;;-5.00;99.90;;;;;;5033878;28;20175;-84
2021/12/08 04:28:39;;;;;;;1999.90;999.90;;;-5.00;99.90;;;;;;5034467;28;20101;-84
2021/12/08 04:31:04;;;;;;;1999.90;999.90;;;-5.10;99.90;;;;;;5034544;28;20034;-84
2021/12/08 04:33:33;;;;;;;1999.90;999.90;;;-5.10;99.90;;;;;;5035652;28;20385;-81
2021/12/08 04:35:59;;;;;;;1999.90;999.90;;;-5.10;99.90;;;;;;5034742;28;20105;-85
2021/12/08 04:38:32;;;;;;;1999.90;999.90;;;-5.10;99.90;;;;;;5034667;28;20027;-84
2021/12/08 04:41:03;;;;;;;1999.90;999.90;;;-5.10;99.90;;;;;;5034270;28;20496;-84
2021/12/08 04:44:06;;;;;;;1999.90;999.90;;;-5.10;99.90;;;;;;5034914;28;20053;-85
2021/12/08 05:06:05;;;;;;;1999.90;999.90;;;-5.20;99.90;;;;;;5035232;28;19959;-78
2021/12/08 05:08:41;;;;;;;1999.90;999.90;;;-5.20;99.90;;;;;;5034103;28;20083;-84
2021/12/08 05:11:15;;;;;;;1999.90;999.90;;;-5.10;99.90;;;;;;5033616;28;20075;-82
2021/12/08 05:13:43;;;;;;;1999.90;999.90;;;-5.10;99.90;;;;;;5033631;28;20025;-83
2021/12/08 05:16:10;;;;;;;1999.90;999.90;;;-5.20;99.90;;;;;;5034964;28;20465;-78
2021/12/08 05:18:39;;;;;;;1999.90;999.90;;;-5.20;99.90;;;;;;5033500;28;20036;-84
2021/12/08 05:21:20;;;;;;;1999.90;999.90;;;-5.20;99.90;;;;;;5033267;28;20147;-78
2021/12/08 05:23:58;;;;;;;1999.90;999.90;;;-5.30;99.90;;;;;;5033498;28;20029;-83
2021/12/08 05:26:33;;;;;;;1999.90;999.90;;;-5.20;99.90;;;;;;5034344;28;20523;-83
2021/12/08 05:29:08;;;;;;;1999.90;999.90;;;-5.20;99.90;;;;;;5033771;28;20064;-83
2021/12/08 05:31:34;;;;;;;1999.90;999.90;;;-5.30;99.90;;;;;;5033322;28;20122;-84
2021/12/08 05:34:00;;;;;;;1999.90;999.90;;;-5.30;99.90;;;;;;5034023;28;20128;-82
2021/12/08 05:36:27;;;;;;;1999.90;999.90;;;-5.40;99.90;;;;;;5035136;28;20056;-84
2021/12/08 05:38:56;;;;;;;1999.90;999.90;;;-5.40;99.90;;;;;;5034928;28;20021;-84
2021/12/08 05:41:30;;;;;;;1999.90;999.90;;;-5.40;99.90;;;;;;5033873;28;20017;-78
2021/12/08 05:43:57;;;;;;;1999.90;999.90;;;-5.30;99.90;;;;;;5033913;28;20107;-83
2021/12/08 05:46:26;;;;;;;1999.90;999.90;;;-5.30;99.90;;;;;;5033434;28;20025;-78
2021/12/08 05:48:52;;;;;;;1999.90;999.90;;;-5.40;99.90;;;;;;5033656;28;20563;-79
2021/12/08 05:51:23;;;;;;;1999.90;999.90;;;-5.40;99.90;;;;;;5033483;28;20036;-83
2021/12/08 05:53:52;;;;;;;1999.90;999.90;;;-5.40;99.90;;;;;;5033263;28;20018;-78
2021/12/08 05:56:19;;;;;;;1999.90;999.90;;;-5.30;99.90;;;;;;5034442;28;20453;-79
2021/12/08 05:58:46;;;;;;;1999.90;999.90;;;-5.40;99.90;;;;;;5034546;28;20485;-83
2021/12/08 06:01:26;;;;;;;1999.90;999.90;;;-5.40;99.90;;;;;;5033128;28;20029;-80
2021/12/08 06:03:53;;;;;;;1999.90;999.90;;;-5.40;99.90;;;;;;5033467;28;20033;-80
2021/12/08 06:06:21;;;;;;;1999.90;999.90;;;-5.40;99.90;;;;;;5033053;28;20029;-80
2021/12/08 06:08:48;;;;;;;1999.90;999.90;;;-5.40;99.90;;;;;;5032942;28;20072;-83
2021/12/08 06:11:15;;;;;;;1999.90;999.90;;;-5.50;99.90;;;;;;5032558;28;20057;-83
2021/12/08 06:13:42;;;;;;;1999.90;999.90;;;-5.60;99.90;;;;;;5032960;28;20025;-79
2021/12/08 06:16:10;;;;;;;1999.90;999.90;;;-5.60;99.90;;;;;;5032003;28;20376;-78
2021/12/08 06:18:39;;;;;;;1999.90;999.90;;;-5.50;99.90;;;;;;5033499;28;20017;-79
2021/12/08 06:21:09;;;;;;;1999.90;999.90;;;-5.60;99.90;;;;;;5032302;28;20044;-83
2021/12/08 06:23:39;;;;;;;1999.90;999.90;;;-5.60;99.90;;;;;;5032901;28;20380;-81
2021/12/08 06:26:06;;;;;;;1999.90;999.90;;;-5.50;99.90;;;;;;5032161;28;20041;-80
2021/12/08 06:28:32;;;;;;;1999.90;999.90;;;;;;;;;;5033321;28;20056;-75
2021/12/08 06:30:58;;;;;;;1999.90;999.90;;;-4.20;99.90;;;;;;5033513;28;20083;-83
2021/12/08 06:33:25;;;;;;;1999.90;999.90;;;-4.30;99.90;;;;;;5032242;28;20038;-80
2021/12/08 06:36:01;;;;;;;1999.90;999.90;;;-4.50;99.90;;;;;;5038751;28;20014;-84
2021/12/08 06:38:27;;;;;;;1999.90;999.90;;;-4.90;99.90;;;;;;5034839;28;20425;-81
2021/12/08 06:41:25;;;;;;;1999.90;999.90;;;-5.10;99.90;;;;;;5035676;28;20465;-82
2021/12/08 06:43:56;;;;;;;1999.90;999.90;;;-5.40;99.90;;;;;;5034985;28;20481;-78
2021/12/08 06:46:22;;;;;;;1999.90;999.90;;;-5.50;99.90;;;;;;5034023;28;20029;-75
2021/12/08 06:48:52;;;;;;;1999.90;999.90;;;-5.60;99.90;;;;;;5035382;28;20022;-77
2021/12/08 06:51:23;;;;;;;1999.90;999.90;;;-5.60;99.90;;;;;;5035733;28;20021;-81
2021/12/08 06:53:56;;;;;;;1999.90;999.90;;;-5.60;99.90;;;;;;5035401;28;20026;-78
2021/12/08 06:56:31;;;;;;;1999.90;999.90;;;-5.60;99.90;;;;;;5035433;28;20025;-76
2021/12/08 06:59:00;;;;;;;1999.90;999.90;;;-5.50;99.90;;;;;;5035229;28;20496;-79
2021/12/08 07:01:47;;;;;;;1999.90;999.90;;;-5.60;99.90;;;;;;5033894;28;20030;-75
2021/12/08 07:06:59;;;;;;;1999.90;999.90;;;-5.50;99.90;;;;;;5034939;28;20080;-79
2021/12/08 07:09:34;;;;;;;1999.90;999.90;;;-5.40;99.90;;;;;;5034348;28;20045;-80
2021/12/08 07:12:04;;;;;;;1999.90;999.90;;;-5.40;99.90;;;;;;5034897;28;20104;-78
2021/12/08 07:14:33;;;;;;;1999.90;999.90;;;-5.40;99.90;;;;;;5034769;28;20610;-75
2021/12/08 07:17:03;;;;;;;1999.90;999.90;;;-5.30;99.90;;;;;;5034758;28;20049;-75
2021/12/08 07:19:42;;;;;;;1999.90;999.90;;;-5.30;99.90;;;;;;5033056;28;20072;-75
2021/12/08 07:22:10;;;;;;;1999.90;999.90;;;-5.20;99.90;;;;;;5034687;28;20018;-78
2021/12/08 07:24:41;;;;;;;1999.90;999.90;;;-5.20;99.90;;;;;;5033841;28;20703;-81
2021/12/08 07:27:14;;;;;;;1999.90;999.90;;;-5.10;99.90;;;;;;5033838;28;20033;-80
2021/12/08 07:29:42;;;;;;;1999.90;999.90;;;-5.00;99.90;;;;;;5034396;28;20033;-76
2021/12/08 07:32:21;;;;;;;1999.90;999.90;;;-5.00;99.90;;;;;;5035312;28;20026;-76
2021/12/08 07:34:51;;;;;;;1999.90;999.90;;;-4.90;99.90;;;;;;5033917;28;20086;-78
2021/12/08 07:37:27;;;;;;;1999.90;999.90;;;-4.80;99.90;;;;;;5034893;28;20408;-79
2021/12/08 07:40:12;;;;;;;;;;;-4.80;99.90;;;;;;5035021;28;20072;-78
2021/12/08 07:42:44;;;;;;;1999.90;999.90;;;-4.80;99.90;;;;;;5033322;28;19958;-79
2021/12/08 07:45:15;;;;;;;1999.90;999.90;;;-4.60;99.90;;;;;;5033612;28;20427;-79
2021/12/08 07:47:41;;;;;;;1999.90;999.90;;;-4.60;99.90;;;;;;5033986;28;20040;-76
2021/12/08 07:50:25;;;;;;;1999.90;999.90;;;-4.50;99.90;;;;;;5033513;28;20039;-80
2021/12/08 07:52:52;;;;;;;1999.90;999.90;;;-4.40;99.90;;;;;;5033802;28;20040;-80
2021/12/08 07:55:38;;;;;;;1999.90;999.90;;;-4.30;99.90;;;;;;5034510;28;20025;-76
2021/12/08 07:58:06;;;;;;;;;;;-4.20;99.90;;;;;;5034837;28;20372;-79
2021/12/08 08:00:39;;;;;;;1999.90;999.90;;;-4.20;99.90;;;;;;5034831;28;19905;-78
2021/12/08 08:03:05;;;;;;;1999.90;999.90;;;-4.10;99.90;;;;;;5033504;28;20033;-84
2021/12/08 08:05:32;;;;;;;1999.90;999.90;;;-4.10;99.90;;;;;;5033911;28;20502;-84
2021/12/08 08:08:04;;;;;;;1999.90;999.90;;;-4.10;99.90;;;;;;5032826;28;20072;-82
2021/12/08 08:10:35;;;;;;;1999.90;999.90;;;-4.00;99.90;;;;;;5033053;28;20028;-77
2021/12/08 08:13:02;;;;;;;1999.90;999.90;;;-3.90;99.90;;;;;;5032953;28;20041;-78
2021/12/08 08:15:32;;;;;;;1999.90;999.90;;;-0.80;99.90;;;;;;5034184;28;20542;-82
2021/12/08 08:18:05;;;;;;;1999.90;999.90;;;-1.20;99.90;;;;;;5034467;28;20068;-81
2021/12/08 08:20:33;;;;;;;1999.90;999.90;;;-1.60;99.90;;;;;;5033426;28;20025;-75
2021/12/08 08:23:00;;;;;;;1999.90;999.90;;;-1.80;99.90;;;;;;5034832;28;20033;-83
2021/12/08 08:25:32;;;;;;;1999.90;999.90;;;-2.00;99.90;;;;;;5033051;28;20095;-75
2021/12/08 08:27:59;;;;;;;1999.90;999.90;;;-2.20;99.90;;;;;;5032467;28;20358;-75
2021/12/08 08:30:29;;;;;;;1999.90;999.90;;;-2.40;99.90;;;;;;5033741;28;20021;-82
2021/12/08 08:32:57;;;;;;;1999.90;999.90;;;-1.70;99.90;;;;;;5033003;28;20021;-84
2021/12/08 08:35:31;;;;;;;1999.90;999.90;;;-1.80;99.90;;;;;;5033947;28;20033;-80
2021/12/08 08:37:59;;;;;;;1999.90;999.90;;;-2.00;99.90;;;;;;5034426;28;20108;-84
2021/12/08 08:40:36;;;;;;;1999.90;999.90;;;-2.20;99.90;;;;;;5034470;28;20036;-82
2021/12/08 08:43:03;;;;;;;1999.90;999.90;;;-2.20;99.90;;;;;;5034639;28;20083;-77
2021/12/08 08:45:34;;;;;;;1999.90;999.90;;;-2.30;99.90;;;;;;5032954;28;20104;-79
2021/12/08 08:48:17;;;;;;;1999.90;999.90;;;-2.40;99.90;;;;;;5033062;28;20060;-83
2021/12/08 08:50:42;;;;;;;1999.90;999.90;;;-2.40;99.90;;;;;;5033423;28;20029;-80
2021/12/08 08:53:09;;;;;;;1999.90;999.90;;;-2.50;99.90;;;;;;5034949;28;20025;-84
2021/12/08 08:55:43;;;;;;;1999.90;999.90;;;-2.40;99.90;;;;;;5034092;28;20456;-80
2021/12/08 08:58:11;;;;;;;1999.90;999.90;;;-2.30;99.90;;;;;;5032818;28;20377;-79
2021/12/08 09:00:50;;;;;;;1999.90;999.90;;;-2.30;99.90;;;;;;5033664;28;20076;-79
2021/12/08 09:03:20;;;;;;;1999.90;999.90;;;-2.20;99.90;;;;;;5032333;28;20076;-83
2021/12/08 09:05:54;;;;;;;1999.90;999.90;;;-2.10;99.90;;;;;;5035254;28;20060;-79
2021/12/08 09:08:28;;;;;;;1999.90;999.90;;;-2.10;99.90;;;;;;5032746;28;20028;-79
2021/12/08 09:11:10;;;;;;;1999.90;999.90;;;-2.00;99.90;;;;;;5034712;28;20052;-79
2021/12/08 09:13:43;;;;;;;1999.90;999.90;;;-1.80;99.90;;;;;;5033627;28;20036;-83
2021/12/08 09:16:15;;;;;;;1999.90;999.90;;;-1.70;99.90;;;;;;5033228;28;20504;-80
2021/12/08 09:18:58;;;;;;;1999.90;999.90;;;-1.60;99.90;;;;;;5035464;28;20018;-80
2021/12/08 09:21:30;;;;;;;1999.90;999.90;;;-1.50;99.90;;;;;;5031184;28;20025;-79
2021/12/08 09:24:15;;;;;;;1999.90;999.90;;;-1.30;99.90;;;;;;5033045;28;20442;-80
2021/12/08 09:26:47;;;;;;;1999.90;999.90;;;-1.20;99.90;;;;;;5031241;28;20036;-80
2021/12/08 09:29:21;;;;;;;1999.90;999.90;;;-1.20;99.90;;;;;;5033051;28;20028;-79
2021/12/08 09:32:08;;;;;;;1999.90;999.90;;;-1.00;99.90;;;;;;5032162;28;20032;-79
2021/12/08 09:34:43;;;;;;;1999.90;999.90;;;-0.90;99.90;;;;;;5032614;28;20072;-80
2021/12/08 09:37:15;;;;;;;1999.90;999.90;;;-0.90;99.90;;;;;;5031734;28;20485;-83
2021/12/08 09:39:49;;;;;;;1999.90;999.90;;;-0.80;99.90;;;;;;5032730;28;20061;-84
2021/12/08 09:42:32;;;;;;;1999.90;999.90;;;-0.80;99.90;;;;;;5033168;28;20018;-79
2021/12/08 09:45:10;;;;;;;1999.90;999.90;;;-0.70;99.90;;;;;;5032224;28;20115;-79
2021/12/08 09:47:36;;;;;;;1999.90;999.90;;;-0.70;99.90;;;;;;5032791;28;20163;-80
2021/12/08 09:50:05;;;;;;;1999.90;999.90;;;-0.60;99.90;;;;;;5032605;28;20017;-80
2021/12/08 09:52:31;;;;;;;1999.90;999.90;;;-0.60;99.90;;;;;;5031860;28;20477;-79
2021/12/08 09:55:00;;;;;;;1999.90;999.90;;;-0.50;99.90;;;;;;5032156;28;20013;-83
2021/12/08 09:57:27;;;;;;;1999.90;999.90;;;-0.40;99.90;;;;;;5032928;28;20029;-81
2021/12/08 09:59:53;;;;;;;1999.90;999.90;;;-0.40;99.90;;;;;;5032308;28;20029;-79
2021/12/08 10:02:33;;;;;;;1999.90;999.90;;;-0.20;99.90;;;;;;5030693;28;20049;-77
2021/12/08 10:05:03;;;;;;;1999.90;999.90;;;-0.20;99.90;;;;;;5032119;28;20546;-79
2021/12/08 10:07:28;;;;;;;1999.90;999.90;;;-0.10;99.90;;;;;;5032329;28;20532;-79
2021/12/08 10:09:54;;;;;;;1999.90;999.90;;;-0.10;99.90;;;;;;5034238;28;20030;-80
2021/12/08 10:12:21;;;;;;;1999.90;999.90;;;-0.10;99.90;;;;;;5036120;28;20091;-79
2021/12/08 10:14:47;;;;;;;1999.90;999.90;;;0.00;99.90;;;;;;5036508;28;20065;-78
2021/12/08 10:17:14;;;;;;;1999.90;999.90;;;0.10;99.90;;;;;;5035616;28;20017;-79
2021/12/08 10:19:42;;;;;;;1999.90;999.90;;;0.10;99.90;;;;;;5037186;28;20476;-82
2021/12/08 10:22:22;;;;;;;1999.90;999.90;;;0.20;99.90;;;;;;5038677;28;20079;-85
2021/12/08 10:25:05;;;;;;;1999.90;999.90;;;0.30;99.90;;;;;;5038420;28;20037;-84
2021/12/08 10:27:32;;;;;;;1999.90;999.90;;;0.30;99.90;;;;;;5038751;28;20053;-83
2021/12/08 10:30:23;;;;;;;1999.90;999.90;;;0.50;99.90;;;;;;5037393;28;20088;-78
2021/12/08 10:32:50;;;;;;;1999.90;999.90;;;0.40;99.90;;;;;;5035061;28;20036;-84
2021/12/08 10:35:42;;;;;;;1999.90;999.90;;;0.50;99.90;;;;;;5036782;28;20080;-85
2021/12/08 10:38:09;;;;;;;1999.90;999.90;;;0.60;99.90;;;;;;5035721;28;20022;-79
2021/12/08 10:40:34;;;;;;;1999.90;999.90;;;0.70;99.90;;;;;;5035699;28;20029;-83
2021/12/08 10:43:13;;;;;;;1999.90;999.90;;;0.80;99.90;;;;;;5036231;28;20032;-81
2021/12/08 10:45:39;;;;;;;1999.90;999.90;;;1.00;99.90;;;;;;5036154;28;20033;-80
2021/12/08 10:48:06;;;;;;;1999.90;999.90;;;0.90;99.90;;;;;;5034926;28;20052;-80
2021/12/08 10:56:08;;;;;;;1999.90;999.90;;;1.10;99.90;;;;;;5045058;28;20044;-79
2021/12/08 10:58:39;;;;;;;1999.90;999.90;;;1.20;99.90;;;;;;5053803;28;20408;-79
2021/12/08 11:01:18;;;;;;;1999.90;999.90;;;1.20;99.90;;;;;;5055083;28;20029;-80
2021/12/08 11:03:46;;;;;;;1999.90;999.90;;;1.30;99.90;;;;;;5054856;28;20037;-80
2021/12/08 11:06:15;;;;;;;1999.90;999.90;;;1.40;99.90;;;;;;5055662;28;20033;-74
2021/12/08 11:08:44;;;;;;;1999.90;999.90;;;1.40;99.90;;;;;;5054666;28;20025;-79
2021/12/08 11:11:22;;;;;;;1999.90;999.90;;;1.70;99.90;;;;;;5055056;28;20017;-79
2021/12/08 11:13:55;;;;;;;1999.90;999.90;;;1.80;99.90;;;;;;5052301;28;20033;-80
2021/12/08 11:16:30;;;;;;;1999.90;999.90;;;1.80;99.90;;;;;;5054820;28;20052;-79
2021/12/08 11:19:08;;;;;;;1999.90;999.90;;;1.90;99.90;;;;;;5055941;28;20048;-83
2021/12/08 11:21:40;;;;;;;1999.90;999.90;;;1.90;99.90;;;;;;5055388;28;20033;-82
2021/12/08 11:24:13;;;;;;;1999.90;999.90;;;1.90;99.90;;;;;;5069064;28;20032;-83
2021/12/08 11:26:43;;;;;;;1999.90;999.90;;;1.90;99.90;;;;;;5068828;28;20099;-82
2021/12/08 11:29:19;;;;;;;1999.90;999.90;;;1.90;99.90;;;;;;5054763;28;20384;-84
2021/12/08 11:31:46;;;;;;;;;;;1.90;99.90;;;;;;5055558;28;20028;-82
2021/12/08 11:34:17;;;;;;;1999.90;999.90;;;1.90;99.90;;;;;;5056301;28;19963;-83
2021/12/08 11:36:42;;;;;;;1999.90;999.90;;;1.80;99.90;;;;;;5055325;28;20022;-79
2021/12/08 11:39:13;;;;;;;1999.90;999.90;;;1.80;99.90;;;;;;5055338;28;20048;-86
2021/12/08 11:42:06;;;;;;;1999.90;999.90;;;1.80;99.90;;;;;;5057244;28;20468;-82
2021/12/08 11:44:36;;;;;;;1999.90;999.90;;;1.90;99.90;;;;;;5055833;28;20033;-81
2021/12/08 11:47:11;;;;;;;1999.90;999.90;;;1.80;99.90;;;;;;5056956;28;20031;-78
2021/12/08 11:49:42;;;;;;;1999.90;999.90;;;1.80;99.90;;;;;;5058113;28;20025;-80
2021/12/08 11:52:13;;;;;;;1999.90;999.90;;;2.00;99.90;;;;;;5070766;28;20027;-80
2021/12/08 11:54:41;;;;;;;1999.90;999.90;;;2.10;99.90;;;;;;5059377;28;20091;-84
2021/12/08 11:57:12;;;;;;;1999.90;999.90;;;2.30;99.90;;;;;;5055003;28;20025;-79
2021/12/08 11:59:54;;;;;;;1999.90;999.90;;;2.50;99.90;;;;;;5055363;28;20017;-78
2021/12/08 12:02:21;;;;;;;1999.90;999.90;;;2.50;99.90;;;;;;5057035;28;20045;-84
2021/12/08 12:04:47;;;;;;;1999.90;999.90;;;2.60;99.90;;;;;;5060113;28;20025;-79
2021/12/08 12:07:14;;;;;;;1999.90;999.90;;;2.80;99.90;;;;;;5063457;28;20048;-81
2021/12/08 12:09:42;;;;;;;1999.90;999.90;;;2.90;99.60;;;;;;5061851;28;20166;-84
2021/12/08 12:12:08;;;;;;;1999.90;999.90;;;2.90;99.30;;;;;;5064843;28;20013;-82
2021/12/08 12:14:34;;;;;;;1999.90;999.90;;;3.00;98.90;;;;;;5061709;28;20105;-79
2021/12/08 12:17:00;;;;;;;1999.90;999.90;;;3.10;98.50;;;;;;5054612;28;20021;-83
2021/12/08 12:19:31;;;;;;;1999.90;999.90;;;3.10;98.50;;;;;;5055544;28;20696;-81
2021/12/08 12:22:30;;;;;;;1999.90;999.90;;;3.20;98.10;;;;;;5058492;28;20025;-78
2021/12/08 12:25:29;;;;;;;1999.90;999.90;;;3.20;97.90;;;;;;5060395;28;20029;-85
2021/12/08 12:28:33;;;;;;;1999.90;999.90;;;4.30;99.90;;;;;;5062728;28;20063;-86
2021/12/08 12:31:19;;;;;;;1999.90;999.90;;;4.60;99.90;;;;;;5064496;28;20051;-84
2021/12/08 12:33:47;;;;;;;1999.90;999.90;;;4.40;95.70;;;;;;5061197;28;20029;-85
2021/12/08 12:36:21;;;;;;;1999.90;999.90;;;4.10;94.60;;;;;;5063254;28;20029;-81
2021/12/08 12:38:48;;;;;;;1999.90;999.90;;;3.90;94.40;;;;;;5061457;28;20039;-81
2021/12/08 12:41:28;;;;;;;1999.90;999.90;;;3.70;94.30;;;;;;5056168;28;20043;-82
2021/12/08 12:44:21;;;;;;;1999.90;999.90;;;3.80;99.10;;;;;;5054485;28;20039;-78
2021/12/08 12:49:33;;;;;;;1999.90;999.90;;;3.30;94.70;;;;;;5055141;28;20025;-85
2021/12/08 12:52:01;;;;;;;1999.90;999.90;;;3.10;95.00;;;;;;5055756;28;20036;-80
2021/12/08 12:54:27;;;;;;;1999.90;999.90;;;2.90;95.30;;;;;;5055515;28;20032;-84
2021/12/08 12:56:55;;;;;;;1999.90;999.90;;;2.80;95.40;;;;;;5053817;28;20377;-79
2021/12/08 12:59:26;;;;;;;1999.90;999.90;;;2.60;96.20;;;;;;5053667;28;20029;-80
2021/12/08 13:02:03;;;;;;;1999.90;999.90;;;2.60;96.50;;;;;;5053110;28;20389;-81
2021/12/08 13:04:30;;;;;;;1999.90;999.90;;;2.50;97.10;;;;;;5055930;28;20033;-79
2021/12/08 13:06:58;;;;;;;1999.90;999.90;;;2.60;97.00;;;;;;5053837;28;20029;-84
2021/12/08 13:09:36;;;;;;;1999.90;999.90;;;2.40;97.20;;;;;;5053387;28;20025;-82